sensor_id;sensor_type;location;lat;lon;timestamp;P1;durP1;ratioP1;P2;durP2;ratioP2
57071;SDS011;42956;51.366;11.298;2022-11-20T00:00:31;22.17;;;11.60;;
57071;SDS011;42956;51.366;11.298;2022-11-20T00:03:01;21.65;;;10.77;;
57071;SDS011;42956;51.366;11.298;2022-11-20T00:05:29;18.70;;;10.88;;
57071;SDS011;42956;51.366;11.298;2022-11-20T00:07:59;23.90;;;11.30;;
57071;SDS011;42956;51.366;11.298;2022-11-20T00:10:27;22.05;;;10.98;;
57071;SDS011;42956;51.366;11.298;2022-11-20T00:12:55;20.88;;;11.77;;
57071;SDS011;42956;51.366;11.298;2022-11-20T00:15:25;24.50;;;12.57;;
57071;SDS011;42956;51.366;11.298;2022-11-20T00:17:53;29.17;;;11.35;;
57071;SDS011;42956;51.366;11.298;2022-11-20T00:20:22;23.88;;;13.25;;
57071;SDS011;42956;51.366;11.298;2022-11-20T00:22:50;25.83;;;14.93;;
57071;SDS011;42956;51.366;11.298;2022-11-20T00:25:19;21.95;;;13.10;;
57071;SDS011;42956;51.366;11.298;2022-11-20T00:27:47;27.13;;;13.43;;
57071;SDS011;42956;51.366;11.298;2022-11-20T00:30:15;31.48;;;15.88;;
57071;SDS011;42956;51.366;11.298;2022-11-20T00:32:42;28.63;;;14.85;;
57071;SDS011;42956;51.366;11.298;2022-11-20T00:35:10;25.50;;;13.60;;
57071;SDS011;42956;51.366;11.298;2022-11-20T00:37:40;27.75;;;13.43;;
57071;SDS011;42956;51.366;11.298;2022-11-20T00:40:08;24.98;;;14.15;;
57071;SDS011;42956;51.366;11.298;2022-11-20T00:42:36;26.65;;;13.73;;
57071;SDS011;42956;51.366;11.298;2022-11-20T00:45:04;32.67;;;13.75;;
57071;SDS011;42956;51.366;11.298;2022-11-20T00:47:32;26.25;;;13.88;;
57071;SDS011;42956;51.366;11.298;2022-11-20T00:50:00;28.33;;;14.07;;
57071;SDS011;42956;51.366;11.298;2022-11-20T00:52:28;26.83;;;13.88;;
57071;SDS011;42956;51.366;11.298;2022-11-20T00:54:58;24.98;;;13.80;;
57071;SDS011;42956;51.366;11.298;2022-11-20T00:57:26;25.60;;;13.75;;
57071;SDS011;42956;51.366;11.298;2022-11-20T00:59:54;31.75;;;14.85;;
57071;SDS011;42956;51.366;11.298;2022-11-20T01:02:22;28.08;;;14.48;;
57071;SDS011;42956;51.366;11.298;2022-11-20T01:04:50;32.67;;;15.93;;
57071;SDS011;42956;51.366;11.298;2022-11-20T01:07:18;27.00;;;15.10;;
57071;SDS011;42956;51.366;11.298;2022-11-20T01:09:45;35.35;;;15.65;;
57071;SDS011;42956;51.366;11.298;2022-11-20T01:12:15;24.70;;;13.88;;
57071;SDS011;42956;51.366;11.298;2022-11-20T01:14:43;27.95;;;15.02;;
57071;SDS011;42956;51.366;11.298;2022-11-20T01:17:11;37.17;;;16.23;;
57071;SDS011;42956;51.366;11.298;2022-11-20T01:19:39;32.70;;;15.60;;
57071;SDS011;42956;51.366;11.298;2022-11-20T01:22:07;31.95;;;14.05;;
57071;SDS011;42956;51.366;11.298;2022-11-20T01:24:35;33.42;;;15.85;;
57071;SDS011;42956;51.366;11.298;2022-11-20T01:27:03;31.25;;;13.63;;
57071;SDS011;42956;51.366;11.298;2022-11-20T01:29:32;27.63;;;13.75;;
57071;SDS011;42956;51.366;11.298;2022-11-20T01:32:00;32.58;;;15.38;;
57071;SDS011;42956;51.366;11.298;2022-11-20T01:34:28;28.05;;;15.20;;
57071;SDS011;42956;51.366;11.298;2022-11-20T01:36:56;25.48;;;14.57;;
57071;SDS011;42956;51.366;11.298;2022-11-20T01:39:25;25.35;;;13.18;;
57071;SDS011;42956;51.366;11.298;2022-11-20T01:41:53;22.35;;;12.45;;
57071;SDS011;42956;51.366;11.298;2022-11-20T01:44:50;30.08;;;13.80;;
57071;SDS011;42956;51.366;11.298;2022-11-20T01:47:20;23.77;;;13.35;;
57071;SDS011;42956;51.366;11.298;2022-11-20T01:49:51;26.63;;;14.03;;
57071;SDS011;42956;51.366;11.298;2022-11-20T01:52:21;21.33;;;11.70;;
57071;SDS011;42956;51.366;11.298;2022-11-20T01:54:50;19.33;;;9.95;;
57071;SDS011;42956;51.366;11.298;2022-11-20T01:57:20;23.48;;;12.10;;
57071;SDS011;42956;51.366;11.298;2022-11-20T01:59:50;20.05;;;11.35;;
57071;SDS011;42956;51.366;11.298;2022-11-20T02:04:49;26.77;;;12.52;;
57071;SDS011;42956;51.366;11.298;2022-11-20T02:07:18;21.63;;;11.30;;
57071;SDS011;42956;51.366;11.298;2022-11-20T02:09:47;21.05;;;11.88;;
57071;SDS011;42956;51.366;11.298;2022-11-20T02:12:15;26.33;;;12.60;;
57071;SDS011;42956;51.366;11.298;2022-11-20T02:14:58;21.00;;;13.07;;
57071;SDS011;42956;51.366;11.298;2022-11-20T02:17:27;19.63;;;10.80;;
57071;SDS011;42956;51.366;11.298;2022-11-20T02:19:55;21.70;;;11.85;;
57071;SDS011;42956;51.366;11.298;2022-11-20T02:22:24;19.95;;;11.38;;
57071;SDS011;42956;51.366;11.298;2022-11-20T02:24:56;20.77;;;10.73;;
57071;SDS011;42956;51.366;11.298;2022-11-20T02:27:26;16.52;;;10.40;;
57071;SDS011;42956;51.366;11.298;2022-11-20T02:29:55;23.58;;;11.52;;
57071;SDS011;42956;51.366;11.298;2022-11-20T02:32:25;18.35;;;11.18;;
57071;SDS011;42956;51.366;11.298;2022-11-20T02:34:54;17.67;;;10.13;;
57071;SDS011;42956;51.366;11.298;2022-11-20T02:37:22;19.17;;;10.57;;
57071;SDS011;42956;51.366;11.298;2022-11-20T02:39:51;22.02;;;10.50;;
57071;SDS011;42956;51.366;11.298;2022-11-20T02:42:20;19.83;;;12.05;;
57071;SDS011;42956;51.366;11.298;2022-11-20T02:44:48;22.40;;;10.82;;
57071;SDS011;42956;51.366;11.298;2022-11-20T02:47:16;17.10;;;9.48;;
57071;SDS011;42956;51.366;11.298;2022-11-20T02:49:44;19.77;;;10.68;;
57071;SDS011;42956;51.366;11.298;2022-11-20T02:52:12;16.48;;;10.20;;
57071;SDS011;42956;51.366;11.298;2022-11-20T02:54:40;19.10;;;10.60;;
57071;SDS011;42956;51.366;11.298;2022-11-20T02:57:07;23.17;;;11.25;;
57071;SDS011;42956;51.366;11.298;2022-11-20T02:59:37;22.63;;;11.48;;
57071;SDS011;42956;51.366;11.298;2022-11-20T03:02:04;18.33;;;10.45;;
57071;SDS011;42956;51.366;11.298;2022-11-20T03:04:32;22.10;;;11.85;;
57071;SDS011;42956;51.366;11.298;2022-11-20T03:07:00;22.40;;;11.13;;
57071;SDS011;42956;51.366;11.298;2022-11-20T03:09:28;24.45;;;10.95;;
57071;SDS011;42956;51.366;11.298;2022-11-20T03:11:57;20.00;;;11.15;;
57071;SDS011;42956;51.366;11.298;2022-11-20T03:14:25;21.10;;;11.40;;
57071;SDS011;42956;51.366;11.298;2022-11-20T03:16:54;25.75;;;11.88;;
57071;SDS011;42956;51.366;11.298;2022-11-20T03:19:22;18.02;;;10.43;;
57071;SDS011;42956;51.366;11.298;2022-11-20T03:21:50;20.70;;;10.60;;
57071;SDS011;42956;51.366;11.298;2022-11-20T03:24:18;20.02;;;10.32;;
57071;SDS011;42956;51.366;11.298;2022-11-20T03:26:46;20.48;;;10.73;;
57071;SDS011;42956;51.366;11.298;2022-11-20T03:29:14;24.48;;;10.98;;
57071;SDS011;42956;51.366;11.298;2022-11-20T03:31:42;18.13;;;10.80;;
57071;SDS011;42956;51.366;11.298;2022-11-20T03:37:34;24.85;;;10.80;;
57071;SDS011;42956;51.366;11.298;2022-11-20T03:40:02;19.55;;;10.38;;
57071;SDS011;42956;51.366;11.298;2022-11-20T03:42:30;25.25;;;10.43;;
57071;SDS011;42956;51.366;11.298;2022-11-20T03:47:41;21.30;;;11.80;;
57071;SDS011;42956;51.366;11.298;2022-11-20T03:50:09;19.40;;;10.85;;
57071;SDS011;42956;51.366;11.298;2022-11-20T03:52:40;22.10;;;11.23;;
57071;SDS011;42956;51.366;11.298;2022-11-20T03:55:08;22.00;;;10.48;;
57071;SDS011;42956;51.366;11.298;2022-11-20T03:57:36;23.70;;;12.25;;
57071;SDS011;42956;51.366;11.298;2022-11-20T04:00:04;25.00;;;11.82;;
57071;SDS011;42956;51.366;11.298;2022-11-20T04:02:32;27.80;;;13.88;;
57071;SDS011;42956;51.366;11.298;2022-11-20T04:05:00;27.35;;;13.02;;
57071;SDS011;42956;51.366;11.298;2022-11-20T04:07:28;26.90;;;12.80;;
57071;SDS011;42956;51.366;11.298;2022-11-20T04:09:57;31.83;;;15.35;;
57071;SDS011;42956;51.366;11.298;2022-11-20T04:12:25;26.05;;;14.05;;
57071;SDS011;42956;51.366;11.298;2022-11-20T04:14:53;27.13;;;14.20;;
57071;SDS011;42956;51.366;11.298;2022-11-20T04:17:21;27.58;;;13.35;;
57071;SDS011;42956;51.366;11.298;2022-11-20T04:19:49;28.70;;;14.00;;
57071;SDS011;42956;51.366;11.298;2022-11-20T04:22:17;28.25;;;14.20;;
57071;SDS011;42956;51.366;11.298;2022-11-20T04:24:45;28.20;;;14.02;;
57071;SDS011;42956;51.366;11.298;2022-11-20T04:27:14;25.85;;;14.23;;
57071;SDS011;42956;51.366;11.298;2022-11-20T04:29:42;32.92;;;15.00;;
57071;SDS011;42956;51.366;11.298;2022-11-20T04:32:10;28.80;;;13.85;;
57071;SDS011;42956;51.366;11.298;2022-11-20T04:34:38;30.60;;;16.40;;
57071;SDS011;42956;51.366;11.298;2022-11-20T04:37:06;33.05;;;16.35;;
57071;SDS011;42956;51.366;11.298;2022-11-20T04:39:34;39.30;;;17.45;;
57071;SDS011;42956;51.366;11.298;2022-11-20T04:42:02;32.42;;;16.13;;
57071;SDS011;42956;51.366;11.298;2022-11-20T04:44:48;38.75;;;16.42;;
57071;SDS011;42956;51.366;11.298;2022-11-20T04:47:16;34.58;;;16.65;;
57071;SDS011;42956;51.366;11.298;2022-11-20T04:49:44;30.10;;;14.32;;
57071;SDS011;42956;51.366;11.298;2022-11-20T04:52:13;30.23;;;16.58;;
57071;SDS011;42956;51.366;11.298;2022-11-20T04:54:40;28.75;;;16.02;;
57071;SDS011;42956;51.366;11.298;2022-11-20T04:57:09;36.72;;;17.85;;
57071;SDS011;42956;51.366;11.298;2022-11-20T04:59:40;30.17;;;16.65;;
57071;SDS011;42956;51.366;11.298;2022-11-20T05:02:10;34.05;;;16.90;;
57071;SDS011;42956;51.366;11.298;2022-11-20T05:04:38;32.05;;;16.10;;
57071;SDS011;42956;51.366;11.298;2022-11-20T05:07:06;35.65;;;17.70;;
57071;SDS011;42956;51.366;11.298;2022-11-20T05:09:34;32.22;;;15.52;;
57071;SDS011;42956;51.366;11.298;2022-11-20T05:12:01;32.28;;;16.10;;
57071;SDS011;42956;51.366;11.298;2022-11-20T05:14:30;29.52;;;15.93;;
57071;SDS011;42956;51.366;11.298;2022-11-20T05:16:58;39.25;;;17.05;;
57071;SDS011;42956;51.366;11.298;2022-11-20T05:19:27;31.42;;;18.10;;
57071;SDS011;42956;51.366;11.298;2022-11-20T05:21:55;30.58;;;16.13;;
57071;SDS011;42956;51.366;11.298;2022-11-20T05:24:23;36.70;;;17.33;;
57071;SDS011;42956;51.366;11.298;2022-11-20T05:26:51;34.35;;;16.25;;
57071;SDS011;42956;51.366;11.298;2022-11-20T05:29:19;32.75;;;15.65;;
57071;SDS011;42956;51.366;11.298;2022-11-20T05:31:47;32.53;;;16.30;;
57071;SDS011;42956;51.366;11.298;2022-11-20T05:34:15;30.30;;;15.55;;
57071;SDS011;42956;51.366;11.298;2022-11-20T05:36:44;37.50;;;17.67;;
57071;SDS011;42956;51.366;11.298;2022-11-20T05:39:12;39.85;;;18.35;;
57071;SDS011;42956;51.366;11.298;2022-11-20T05:41:40;29.38;;;14.40;;
57071;SDS011;42956;51.366;11.298;2022-11-20T05:44:09;30.45;;;15.60;;
57071;SDS011;42956;51.366;11.298;2022-11-20T05:46:38;37.58;;;16.42;;
57071;SDS011;42956;51.366;11.298;2022-11-20T05:49:06;34.95;;;16.35;;
57071;SDS011;42956;51.366;11.298;2022-11-20T05:51:33;33.67;;;16.70;;
57071;SDS011;42956;51.366;11.298;2022-11-20T05:54:03;30.00;;;16.27;;
57071;SDS011;42956;51.366;11.298;2022-11-20T05:56:31;33.20;;;14.75;;
57071;SDS011;42956;51.366;11.298;2022-11-20T05:58:59;28.95;;;16.25;;
57071;SDS011;42956;51.366;11.298;2022-11-20T06:01:26;37.38;;;15.27;;
57071;SDS011;42956;51.366;11.298;2022-11-20T06:03:55;30.75;;;14.82;;
57071;SDS011;42956;51.366;11.298;2022-11-20T06:06:23;31.70;;;13.82;;
57071;SDS011;42956;51.366;11.298;2022-11-20T06:08:51;23.27;;;13.60;;
57071;SDS011;42956;51.366;11.298;2022-11-20T06:11:21;26.23;;;14.23;;
57071;SDS011;42956;51.366;11.298;2022-11-20T06:13:49;31.02;;;15.20;;
57071;SDS011;42956;51.366;11.298;2022-11-20T06:16:18;27.35;;;14.18;;
57071;SDS011;42956;51.366;11.298;2022-11-20T06:18:46;33.60;;;14.80;;
57071;SDS011;42956;51.366;11.298;2022-11-20T06:21:15;36.00;;;15.93;;
57071;SDS011;42956;51.366;11.298;2022-11-20T06:23:43;37.08;;;16.00;;
57071;SDS011;42956;51.366;11.298;2022-11-20T06:26:12;32.78;;;15.93;;
57071;SDS011;42956;51.366;11.298;2022-11-20T06:28:42;31.30;;;16.45;;
57071;SDS011;42956;51.366;11.298;2022-11-20T06:31:10;31.33;;;16.13;;
57071;SDS011;42956;51.366;11.298;2022-11-20T06:33:38;39.45;;;18.98;;
57071;SDS011;42956;51.366;11.298;2022-11-20T06:36:07;32.25;;;16.73;;
57071;SDS011;42956;51.366;11.298;2022-11-20T06:38:37;36.15;;;18.80;;
57071;SDS011;42956;51.366;11.298;2022-11-20T06:41:05;39.05;;;19.05;;
57071;SDS011;42956;51.366;11.298;2022-11-20T06:43:34;46.92;;;19.63;;
57071;SDS011;42956;51.366;11.298;2022-11-20T06:46:03;39.55;;;17.73;;
57071;SDS011;42956;51.366;11.298;2022-11-20T06:48:31;36.40;;;17.10;;
57071;SDS011;42956;51.366;11.298;2022-11-20T06:50:59;38.10;;;18.98;;
57071;SDS011;42956;51.366;11.298;2022-11-20T06:53:27;39.13;;;18.67;;
57071;SDS011;42956;51.366;11.298;2022-11-20T06:55:56;43.22;;;18.15;;
57071;SDS011;42956;51.366;11.298;2022-11-20T06:58:28;36.08;;;17.60;;
57071;SDS011;42956;51.366;11.298;2022-11-20T07:00:57;36.33;;;18.88;;
57071;SDS011;42956;51.366;11.298;2022-11-20T07:03:27;38.33;;;18.73;;
57071;SDS011;42956;51.366;11.298;2022-11-20T07:05:55;33.67;;;17.77;;
57071;SDS011;42956;51.366;11.298;2022-11-20T07:08:23;41.00;;;19.40;;
57071;SDS011;42956;51.366;11.298;2022-11-20T07:10:51;38.38;;;19.38;;
57071;SDS011;42956;51.366;11.298;2022-11-20T07:13:19;36.67;;;17.88;;
57071;SDS011;42956;51.366;11.298;2022-11-20T07:15:47;40.38;;;18.13;;
57071;SDS011;42956;51.366;11.298;2022-11-20T07:18:15;40.72;;;20.33;;
57071;SDS011;42956;51.366;11.298;2022-11-20T07:20:44;39.95;;;21.05;;
57071;SDS011;42956;51.366;11.298;2022-11-20T07:23:12;50.00;;;22.02;;
57071;SDS011;42956;51.366;11.298;2022-11-20T07:25:40;40.90;;;20.75;;
57071;SDS011;42956;51.366;11.298;2022-11-20T07:28:08;32.47;;;17.50;;
57071;SDS011;42956;51.366;11.298;2022-11-20T07:30:37;41.08;;;19.35;;
57071;SDS011;42956;51.366;11.298;2022-11-20T07:33:07;44.25;;;20.38;;
57071;SDS011;42956;51.366;11.298;2022-11-20T07:35:35;42.65;;;18.88;;
57071;SDS011;42956;51.366;11.298;2022-11-20T07:38:04;36.15;;;17.02;;
57071;SDS011;42956;51.366;11.298;2022-11-20T07:40:33;29.02;;;16.70;;
57071;SDS011;42956;51.366;11.298;2022-11-20T07:43:00;36.25;;;15.82;;
57071;SDS011;42956;51.366;11.298;2022-11-20T07:45:28;33.70;;;16.42;;
57071;SDS011;42956;51.366;11.298;2022-11-20T07:47:58;30.77;;;16.08;;
57071;SDS011;42956;51.366;11.298;2022-11-20T07:50:26;38.53;;;16.45;;
57071;SDS011;42956;51.366;11.298;2022-11-20T07:52:59;35.28;;;16.77;;
57071;SDS011;42956;51.366;11.298;2022-11-20T07:55:29;35.00;;;16.60;;
57071;SDS011;42956;51.366;11.298;2022-11-20T07:57:57;38.95;;;17.50;;
57071;SDS011;42956;51.366;11.298;2022-11-20T08:00:25;38.03;;;16.73;;
57071;SDS011;42956;51.366;11.298;2022-11-20T08:02:54;41.92;;;18.13;;
57071;SDS011;42956;51.366;11.298;2022-11-20T08:05:21;34.55;;;17.40;;
57071;SDS011;42956;51.366;11.298;2022-11-20T08:07:50;37.95;;;17.70;;
57071;SDS011;42956;51.366;11.298;2022-11-20T08:10:18;34.13;;;16.45;;
57071;SDS011;42956;51.366;11.298;2022-11-20T08:12:47;35.30;;;17.65;;
57071;SDS011;42956;51.366;11.298;2022-11-20T08:15:33;36.63;;;17.92;;
57071;SDS011;42956;51.366;11.298;2022-11-20T08:18:01;36.55;;;17.30;;
57071;SDS011;42956;51.366;11.298;2022-11-20T08:20:49;39.55;;;18.73;;
57071;SDS011;42956;51.366;11.298;2022-11-20T08:23:17;35.85;;;18.38;;
57071;SDS011;42956;51.366;11.298;2022-11-20T08:25:48;35.35;;;17.45;;
57071;SDS011;42956;51.366;11.298;2022-11-20T08:28:17;34.90;;;18.35;;
57071;SDS011;42956;51.366;11.298;2022-11-20T08:30:48;37.38;;;18.10;;
57071;SDS011;42956;51.366;11.298;2022-11-20T08:33:17;40.97;;;18.25;;
57071;SDS011;42956;51.366;11.298;2022-11-20T08:35:45;38.38;;;20.80;;
57071;SDS011;42956;51.366;11.298;2022-11-20T08:38:13;32.03;;;17.35;;
57071;SDS011;42956;51.366;11.298;2022-11-20T08:40:41;35.38;;;18.08;;
57071;SDS011;42956;51.366;11.298;2022-11-20T08:43:30;32.92;;;16.73;;
57071;SDS011;42956;51.366;11.298;2022-11-20T08:45:58;36.67;;;17.92;;
57071;SDS011;42956;51.366;11.298;2022-11-20T08:48:26;40.42;;;17.58;;
57071;SDS011;42956;51.366;11.298;2022-11-20T08:50:57;31.42;;;16.05;;
57071;SDS011;42956;51.366;11.298;2022-11-20T08:53:24;33.90;;;18.40;;
57071;SDS011;42956;51.366;11.298;2022-11-20T08:55:53;32.45;;;18.40;;
57071;SDS011;42956;51.366;11.298;2022-11-20T08:58:21;33.42;;;18.73;;
57071;SDS011;42956;51.366;11.298;2022-11-20T09:00:51;31.15;;;17.30;;
57071;SDS011;42956;51.366;11.298;2022-11-20T09:03:19;34.03;;;18.52;;
57071;SDS011;42956;51.366;11.298;2022-11-20T09:05:47;33.47;;;17.13;;
57071;SDS011;42956;51.366;11.298;2022-11-20T09:08:15;38.35;;;19.27;;
57071;SDS011;42956;51.366;11.298;2022-11-20T09:10:43;34.38;;;19.35;;
57071;SDS011;42956;51.366;11.298;2022-11-20T09:13:11;36.00;;;19.00;;
57071;SDS011;42956;51.366;11.298;2022-11-20T09:15:39;27.73;;;16.50;;
57071;SDS011;42956;51.366;11.298;2022-11-20T09:18:08;30.75;;;18.05;;
57071;SDS011;42956;51.366;11.298;2022-11-20T09:20:36;32.72;;;15.90;;
57071;SDS011;42956;51.366;11.298;2022-11-20T09:23:04;33.65;;;16.80;;
57071;SDS011;42956;51.366;11.298;2022-11-20T09:25:32;37.25;;;17.95;;
57071;SDS011;42956;51.366;11.298;2022-11-20T09:28:00;31.65;;;16.70;;
57071;SDS011;42956;51.366;11.298;2022-11-20T09:30:28;31.58;;;17.05;;
57071;SDS011;42956;51.366;11.298;2022-11-20T09:32:57;33.53;;;17.80;;
57071;SDS011;42956;51.366;11.298;2022-11-20T09:35:27;32.55;;;16.50;;
57071;SDS011;42956;51.366;11.298;2022-11-20T09:37:55;36.25;;;16.45;;
57071;SDS011;42956;51.366;11.298;2022-11-20T09:40:23;31.75;;;16.80;;
57071;SDS011;42956;51.366;11.298;2022-11-20T09:42:54;39.33;;;18.35;;
57071;SDS011;42956;51.366;11.298;2022-11-20T09:45:23;35.85;;;18.13;;
57071;SDS011;42956;51.366;11.298;2022-11-20T09:47:56;33.72;;;16.98;;
57071;SDS011;42956;51.366;11.298;2022-11-20T09:50:30;30.77;;;15.30;;
57071;SDS011;42956;51.366;11.298;2022-11-20T09:53:04;33.47;;;16.90;;
57071;SDS011;42956;51.366;11.298;2022-11-20T09:55:36;30.45;;;17.67;;
57071;SDS011;42956;51.366;11.298;2022-11-20T09:58:05;32.38;;;16.38;;
57071;SDS011;42956;51.366;11.298;2022-11-20T10:00:34;32.67;;;15.77;;
57071;SDS011;42956;51.366;11.298;2022-11-20T10:03:03;31.15;;;15.10;;
57071;SDS011;42956;51.366;11.298;2022-11-20T10:05:35;24.20;;;14.98;;
57071;SDS011;42956;51.366;11.298;2022-11-20T10:08:08;30.65;;;14.95;;
57071;SDS011;42956;51.366;11.298;2022-11-20T10:10:39;31.67;;;14.02;;
57071;SDS011;42956;51.366;11.298;2022-11-20T10:16:02;28.00;;;14.32;;
57071;SDS011;42956;51.366;11.298;2022-11-20T10:18:36;22.95;;;12.77;;
57071;SDS011;42956;51.366;11.298;2022-11-20T10:21:12;29.50;;;14.13;;
57071;SDS011;42956;51.366;11.298;2022-11-20T10:23:46;29.67;;;14.65;;
57071;SDS011;42956;51.366;11.298;2022-11-20T10:26:17;29.70;;;14.82;;
57071;SDS011;42956;51.366;11.298;2022-11-20T10:28:53;25.63;;;13.52;;
57071;SDS011;42956;51.366;11.298;2022-11-20T10:31:27;26.30;;;13.10;;
57071;SDS011;42956;51.366;11.298;2022-11-20T10:33:57;26.83;;;14.10;;
57071;SDS011;42956;51.366;11.298;2022-11-20T10:36:40;20.67;;;11.65;;
57071;SDS011;42956;51.366;11.298;2022-11-20T10:39:14;23.85;;;12.75;;
57071;SDS011;42956;51.366;11.298;2022-11-20T10:41:44;22.77;;;12.18;;
57071;SDS011;42956;51.366;11.298;2022-11-20T10:44:15;26.52;;;12.48;;
57071;SDS011;42956;51.366;11.298;2022-11-20T10:47:05;24.17;;;13.45;;
57071;SDS011;42956;51.366;11.298;2022-11-20T10:49:33;27.55;;;13.82;;
57071;SDS011;42956;51.366;11.298;2022-11-20T10:52:04;26.38;;;14.30;;
57071;SDS011;42956;51.366;11.298;2022-11-20T10:54:36;22.65;;;11.85;;
57071;SDS011;42956;51.366;11.298;2022-11-20T10:57:15;25.92;;;12.88;;
57071;SDS011;42956;51.366;11.298;2022-11-20T10:59:48;23.83;;;12.43;;
57071;SDS011;42956;51.366;11.298;2022-11-20T11:02:19;22.38;;;12.35;;
57071;SDS011;42956;51.366;11.298;2022-11-20T11:04:49;28.55;;;12.60;;
57071;SDS011;42956;51.366;11.298;2022-11-20T11:07:19;28.90;;;14.55;;
57071;SDS011;42956;51.366;11.298;2022-11-20T11:09:49;24.92;;;13.90;;
57071;SDS011;42956;51.366;11.298;2022-11-20T11:12:17;23.05;;;12.90;;
57071;SDS011;42956;51.366;11.298;2022-11-20T11:14:46;19.42;;;11.25;;
57071;SDS011;42956;51.366;11.298;2022-11-20T11:20:01;23.13;;;12.73;;
57071;SDS011;42956;51.366;11.298;2022-11-20T11:22:31;22.50;;;11.52;;
57071;SDS011;42956;51.366;11.298;2022-11-20T11:24:59;22.88;;;12.18;;
57071;SDS011;42956;51.366;11.298;2022-11-20T11:27:27;19.90;;;11.95;;
57071;SDS011;42956;51.366;11.298;2022-11-20T11:30:02;21.58;;;11.90;;
57071;SDS011;42956;51.366;11.298;2022-11-20T11:32:30;23.85;;;12.10;;
57071;SDS011;42956;51.366;11.298;2022-11-20T11:34:59;20.60;;;11.93;;
57071;SDS011;42956;51.366;11.298;2022-11-20T11:37:28;21.10;;;11.48;;
57071;SDS011;42956;51.366;11.298;2022-11-20T11:40:01;21.88;;;11.85;;
57071;SDS011;42956;51.366;11.298;2022-11-20T11:42:51;21.45;;;11.88;;
57071;SDS011;42956;51.366;11.298;2022-11-20T11:45:20;19.70;;;11.63;;
57071;SDS011;42956;51.366;11.298;2022-11-20T11:47:48;21.42;;;12.38;;
57071;SDS011;42956;51.366;11.298;2022-11-20T11:50:18;20.63;;;12.10;;
57071;SDS011;42956;51.366;11.298;2022-11-20T11:52:49;20.42;;;11.93;;
57071;SDS011;42956;51.366;11.298;2022-11-20T11:55:23;22.50;;;11.98;;
57071;SDS011;42956;51.366;11.298;2022-11-20T11:57:54;21.38;;;11.13;;
57071;SDS011;42956;51.366;11.298;2022-11-20T12:00:22;22.75;;;13.25;;
57071;SDS011;42956;51.366;11.298;2022-11-20T12:02:54;19.58;;;11.23;;
57071;SDS011;42956;51.366;11.298;2022-11-20T12:05:25;20.33;;;11.23;;
57071;SDS011;42956;51.366;11.298;2022-11-20T12:07:55;21.30;;;11.07;;
57071;SDS011;42956;51.366;11.298;2022-11-20T12:10:32;28.80;;;12.90;;
57071;SDS011;42956;51.366;11.298;2022-11-20T12:13:04;21.38;;;12.20;;
57071;SDS011;42956;51.366;11.298;2022-11-20T12:15:37;21.55;;;11.25;;
57071;SDS011;42956;51.366;11.298;2022-11-20T12:18:08;21.20;;;11.80;;
57071;SDS011;42956;51.366;11.298;2022-11-20T12:20:41;23.03;;;12.23;;
57071;SDS011;42956;51.366;11.298;2022-11-20T12:23:14;19.58;;;10.02;;
57071;SDS011;42956;51.366;11.298;2022-11-20T12:25:45;19.43;;;9.40;;
57071;SDS011;42956;51.366;11.298;2022-11-20T12:28:21;18.05;;;10.55;;
57071;SDS011;42956;51.366;11.298;2022-11-20T12:30:55;16.88;;;9.05;;
57071;SDS011;42956;51.366;11.298;2022-11-20T12:33:35;14.93;;;8.55;;
57071;SDS011;42956;51.366;11.298;2022-11-20T12:36:12;18.25;;;9.35;;
57071;SDS011;42956;51.366;11.298;2022-11-20T12:38:47;12.75;;;7.72;;
57071;SDS011;42956;51.366;11.298;2022-11-20T12:41:22;12.77;;;7.80;;
57071;SDS011;42956;51.366;11.298;2022-11-20T12:44:19;13.18;;;8.23;;
57071;SDS011;42956;51.366;11.298;2022-11-20T12:47:12;19.83;;;10.63;;
57071;SDS011;42956;51.366;11.298;2022-11-20T12:49:43;16.90;;;10.70;;
57071;SDS011;42956;51.366;11.298;2022-11-20T12:52:20;18.13;;;11.23;;
57071;SDS011;42956;51.366;11.298;2022-11-20T12:55:02;19.08;;;10.23;;
57071;SDS011;42956;51.366;11.298;2022-11-20T12:57:38;17.90;;;9.48;;
57071;SDS011;42956;51.366;11.298;2022-11-20T13:00:11;23.25;;;12.43;;
57071;SDS011;42956;51.366;11.298;2022-11-20T13:02:44;19.98;;;10.68;;
57071;SDS011;42956;51.366;11.298;2022-11-20T13:05:19;19.80;;;10.30;;
57071;SDS011;42956;51.366;11.298;2022-11-20T13:07:50;21.10;;;11.43;;
57071;SDS011;42956;51.366;11.298;2022-11-20T13:10:21;16.67;;;9.75;;
57071;SDS011;42956;51.366;11.298;2022-11-20T13:12:54;18.15;;;11.38;;
57071;SDS011;42956;51.366;11.298;2022-11-20T13:15:28;24.48;;;12.05;;
57071;SDS011;42956;51.366;11.298;2022-11-20T13:17:59;21.88;;;11.95;;
57071;SDS011;42956;51.366;11.298;2022-11-20T13:20:28;18.67;;;10.75;;
57071;SDS011;42956;51.366;11.298;2022-11-20T13:22:56;22.20;;;11.63;;
57071;SDS011;42956;51.366;11.298;2022-11-20T13:25:25;18.38;;;10.95;;
57071;SDS011;42956;51.366;11.298;2022-11-20T13:27:56;21.08;;;11.65;;
57071;SDS011;42956;51.366;11.298;2022-11-20T13:30:25;27.38;;;12.75;;
57071;SDS011;42956;51.366;11.298;2022-11-20T13:32:53;24.50;;;12.00;;
57071;SDS011;42956;51.366;11.298;2022-11-20T13:35:29;20.42;;;11.52;;
57071;SDS011;42956;51.366;11.298;2022-11-20T13:38:02;25.33;;;13.30;;
57071;SDS011;42956;51.366;11.298;2022-11-20T13:40:30;21.92;;;11.98;;
57071;SDS011;42956;51.366;11.298;2022-11-20T13:43:04;23.92;;;13.43;;
57071;SDS011;42956;51.366;11.298;2022-11-20T13:45:34;29.33;;;15.38;;
57071;SDS011;42956;51.366;11.298;2022-11-20T13:48:04;24.70;;;14.68;;
57071;SDS011;42956;51.366;11.298;2022-11-20T13:50:39;26.60;;;14.50;;
57071;SDS011;42956;51.366;11.298;2022-11-20T13:53:12;23.55;;;12.30;;
57071;SDS011;42956;51.366;11.298;2022-11-20T13:55:45;24.08;;;13.68;;
57071;SDS011;42956;51.366;11.298;2022-11-20T13:58:19;22.25;;;13.23;;
57071;SDS011;42956;51.366;11.298;2022-11-20T14:00:50;24.42;;;12.48;;
57071;SDS011;42956;51.366;11.298;2022-11-20T14:03:20;23.30;;;13.55;;
57071;SDS011;42956;51.366;11.298;2022-11-20T14:06:11;22.48;;;11.95;;
57071;SDS011;42956;51.366;11.298;2022-11-20T14:08:41;21.45;;;11.80;;
57071;SDS011;42956;51.366;11.298;2022-11-20T14:11:14;25.50;;;13.05;;
57071;SDS011;42956;51.366;11.298;2022-11-20T14:13:52;24.63;;;12.68;;
57071;SDS011;42956;51.366;11.298;2022-11-20T14:16:21;27.55;;;14.32;;
57071;SDS011;42956;51.366;11.298;2022-11-20T14:18:49;25.15;;;13.50;;
57071;SDS011;42956;51.366;11.298;2022-11-20T14:21:24;25.00;;;12.93;;
57071;SDS011;42956;51.366;11.298;2022-11-20T14:23:53;30.23;;;13.60;;
57071;SDS011;42956;51.366;11.298;2022-11-20T14:26:22;30.75;;;15.20;;
57071;SDS011;42956;51.366;11.298;2022-11-20T14:28:50;31.23;;;16.13;;
57071;SDS011;42956;51.366;11.298;2022-11-20T14:31:21;31.63;;;14.80;;
57071;SDS011;42956;51.366;11.298;2022-11-20T14:33:50;30.58;;;15.48;;
57071;SDS011;42956;51.366;11.298;2022-11-20T14:36:20;27.02;;;15.07;;
57071;SDS011;42956;51.366;11.298;2022-11-20T14:38:48;31.90;;;15.95;;